Terminal Aerodrome Forecast
Issued by NWS Sterling, VA

Current Version | Previous Version | Graphics & Text | Print | Product List | Glossary On
Versions: 1 2 3 4 5 6 7 8 9 10 11 12 13 14 15 16 17 18
775
FTUS41 KLWX 211442 AAA
TAFMRB
TAF AMD
KMRB 211442Z 2115/2212 26009KT P6SM VCSH SCT035 BKN080
     FM211800 27010G17KT P6SM SCT045 BKN080
     FM220000 31006KT P6SM FEW060 SCT250
     FM220700 34006KT P6SM SCT040 OVC110=

USA.gov is the U.S. government's official web portal to all federal, state and local government web resources and services.